createdAt,value
2022-10-03T00:00:46.203Z,94.80
2022-10-03T00:01:46.229Z,94.80
2022-10-03T00:02:46.535Z,94.90
2022-10-03T00:03:46.224Z,94.90
2022-10-03T00:04:46.800Z,94.90
2022-10-03T00:05:46.155Z,95.10
2022-10-03T00:06:46.462Z,95.21
2022-10-03T00:07:46.135Z,95.42
2022-10-03T00:08:46.094Z,95.42
2022-10-03T00:09:46.914Z,95.31
2022-10-03T00:10:46.075Z,95.01
2022-10-03T00:11:46.054Z,94.80
2022-10-03T00:12:46.056Z,94.80
2022-10-03T00:13:46.024Z,94.70
2022-10-03T00:14:46.012Z,94.70
2022-10-03T00:15:46.061Z,95.15
2022-10-03T00:16:45.990Z,95.25
2022-10-03T00:17:45.994Z,95.67
2022-10-03T00:18:53.166Z,95.87
2022-10-03T00:19:45.946Z,95.87
2022-10-03T00:20:45.940Z,96.18
2022-10-03T00:21:45.926Z,96.14
2022-10-03T00:22:45.925Z,96.08
2022-10-03T00:23:45.898Z,96.08
2022-10-03T00:24:45.888Z,95.97
2022-10-03T00:25:45.857Z,95.97
2022-10-03T00:26:45.866Z,95.87
2022-10-03T00:27:45.863Z,95.77
2022-10-03T00:28:45.837Z,95.87
2022-10-03T00:29:45.807Z,95.87
2022-10-03T00:30:45.806Z,95.87
2022-10-03T00:31:45.864Z,95.87
2022-10-03T00:32:45.798Z,95.87
2022-10-03T00:33:45.758Z,96.08
2022-10-03T00:34:45.765Z,96.18
2022-10-03T00:35:45.728Z,96.28
2022-10-03T00:36:45.756Z,96.28
2022-10-03T00:37:45.715Z,96.28
2022-10-03T00:38:45.696Z,96.28
2022-10-03T00:39:45.678Z,96.18
2022-10-03T00:40:45.678Z,96.08
2022-10-03T00:41:45.668Z,96.08
2022-10-03T00:42:45.656Z,96.08
2022-10-03T00:43:45.634Z,95.97
2022-10-03T00:44:45.619Z,95.77
2022-10-03T00:45:45.606Z,95.46
2022-10-03T00:46:45.679Z,95.36
2022-10-03T00:47:45.597Z,95.36
2022-10-03T00:48:45.577Z,95.25
2022-10-03T00:49:45.557Z,95.25
2022-10-03T00:50:45.550Z,95.15
2022-10-03T00:51:45.540Z,94.95
2022-10-03T00:52:45.539Z,94.84
2022-10-03T00:53:45.503Z,94.84
2022-10-03T00:54:45.497Z,94.84
2022-10-03T00:55:45.479Z,94.84
2022-10-03T00:56:45.471Z,94.84
2022-10-03T00:57:45.464Z,94.64
2022-10-03T00:58:45.438Z,94.64
2022-10-03T00:59:48.133Z,94.54
2022-10-03T01:00:45.436Z,94.43
2022-10-03T01:01:45.475Z,94.23
2022-10-03T01:02:45.387Z,94.33
2022-10-03T01:03:45.372Z,94.43
2022-10-03T01:04:45.356Z,94.54
2022-10-03T01:05:45.346Z,94.54
2022-10-03T01:06:45.346Z,94.58
2022-10-03T01:07:45.335Z,94.54
2022-10-03T01:08:45.307Z,94.43
2022-10-03T01:09:45.293Z,94.43
2022-10-03T01:10:45.278Z,94.37
2022-10-03T01:11:45.268Z,94.17
2022-10-03T01:12:45.247Z,94.07
2022-10-03T01:13:45.236Z,94.07
2022-10-03T01:14:45.227Z,94.17
2022-10-03T01:15:45.239Z,94.27
2022-10-03T01:16:45.216Z,94.37
2022-10-03T01:17:45.185Z,94.37
2022-10-03T01:18:45.195Z,94.17
2022-10-03T01:19:45.150Z,94.07
2022-10-03T01:20:45.185Z,94.21
2022-10-03T01:21:45.159Z,94.21
2022-10-03T01:22:45.163Z,94.31
2022-10-03T01:23:45.097Z,94.52
2022-10-03T01:24:45.077Z,94.73
2022-10-03T01:25:45.067Z,94.83
2022-10-03T01:26:45.068Z,95.03
2022-10-03T01:27:45.057Z,95.03
2022-10-03T01:28:45.036Z,94.93
2022-10-03T01:29:45.006Z,94.83
2022-10-03T01:30:45.017Z,94.83
2022-10-03T01:31:45.074Z,94.83
2022-10-03T01:32:44.997Z,94.73
2022-10-03T01:33:44.954Z,94.73
2022-10-03T01:34:44.954Z,94.52
2022-10-03T01:35:44.926Z,94.52
2022-10-03T01:36:44.916Z,94.52
2022-10-03T01:37:44.915Z,94.42
2022-10-03T01:38:44.898Z,94.42
2022-10-03T01:39:44.874Z,94.21
2022-10-03T01:40:44.867Z,94.21
2022-10-03T01:41:44.856Z,94.31
2022-10-03T01:42:44.867Z,94.31
2022-10-03T01:43:44.827Z,94.31
2022-10-03T01:44:44.827Z,94.31
2022-10-03T01:45:44.807Z,94.27
2022-10-03T01:46:44.853Z,94.17
2022-10-03T01:47:44.809Z,94.37
2022-10-03T01:48:44.765Z,94.27
2022-10-03T01:49:44.748Z,94.17
2022-10-03T01:50:44.738Z,94.07
2022-10-03T01:51:44.727Z,93.86
2022-10-03T01:52:44.730Z,93.70
2022-10-03T01:53:44.697Z,93.80
2022-10-03T01:54:44.686Z,93.90
2022-10-03T01:55:44.667Z,93.90
2022-10-03T01:56:44.665Z,94.11
2022-10-03T01:57:44.657Z,94.21
2022-10-03T01:58:44.668Z,94.21
2022-10-03T01:59:44.626Z,94.26
2022-10-03T02:00:44.675Z,94.36
2022-10-03T02:01:44.641Z,94.36
2022-10-03T02:02:44.596Z,94.46
2022-10-03T02:03:44.557Z,94.56
2022-10-03T02:04:44.547Z,94.46
2022-10-03T02:05:44.536Z,94.46
2022-10-03T02:06:44.530Z,94.36
2022-10-03T02:07:44.507Z,94.36
2022-10-03T02:08:44.518Z,94.36
2022-10-03T02:09:44.477Z,94.46
2022-10-03T02:10:44.467Z,94.67
2022-10-03T02:11:44.456Z,94.77
2022-10-03T02:12:44.457Z,94.77
2022-10-03T02:13:44.445Z,94.77
2022-10-03T02:14:44.424Z,94.67
2022-10-03T02:15:44.478Z,94.67
2022-10-03T02:16:44.406Z,94.77
2022-10-03T02:17:44.376Z,94.67
2022-10-03T02:18:44.387Z,94.67
2022-10-03T02:19:44.346Z,94.67
2022-10-03T02:20:44.336Z,94.77
2022-10-03T02:21:44.328Z,94.56
2022-10-03T02:22:44.316Z,94.56
2022-10-03T02:23:44.324Z,94.56
2022-10-03T02:24:44.286Z,94.56
2022-10-03T02:25:44.279Z,94.67
2022-10-03T02:26:44.276Z,94.67
2022-10-03T02:27:44.247Z,94.67
2022-10-03T02:28:44.264Z,94.67
2022-10-03T02:29:44.228Z,94.67
2022-10-03T02:30:44.213Z,94.67
2022-10-03T02:31:44.268Z,94.67
2022-10-03T02:32:44.215Z,94.56
2022-10-03T02:33:44.236Z,94.56
2022-10-03T02:34:44.157Z,94.56
2022-10-03T02:35:44.147Z,94.46
2022-10-03T02:36:44.136Z,94.36
2022-10-03T02:37:44.125Z,94.36
2022-10-03T02:38:44.138Z,94.36
2022-10-03T02:39:44.086Z,94.26
2022-10-03T02:40:44.079Z,94.26
2022-10-03T02:41:44.067Z,94.26
2022-10-03T02:42:44.057Z,94.36
2022-10-03T02:43:44.066Z,94.36
2022-10-03T02:44:44.037Z,94.36
2022-10-03T02:45:44.042Z,94.36
2022-10-03T02:46:44.016Z,94.36
2022-10-03T02:47:43.987Z,94.26
2022-10-03T02:48:43.998Z,94.26
2022-10-03T02:49:43.967Z,94.26
2022-10-03T02:50:43.967Z,94.15
2022-10-03T02:51:43.945Z,94.15
2022-10-03T02:52:43.928Z,94.26
2022-10-03T02:53:43.928Z,94.26
2022-10-03T02:54:43.906Z,94.26
2022-10-03T02:55:43.888Z,94.15
2022-10-03T02:56:43.889Z,94.05
2022-10-03T02:57:43.857Z,93.95
2022-10-03T02:58:43.868Z,94.05
2022-10-03T02:59:43.845Z,94.15
2022-10-03T03:00:43.850Z,94.15
2022-10-03T03:01:43.943Z,94.15
2022-10-03T03:02:43.812Z,94.15
2022-10-03T03:03:43.817Z,94.05
2022-10-03T03:04:43.777Z,94.09
2022-10-03T03:05:43.768Z,93.99
2022-10-03T03:06:43.776Z,93.99
2022-10-03T03:07:43.756Z,93.99
2022-10-03T03:08:43.760Z,93.99
2022-10-03T03:09:43.712Z,93.79
2022-10-03T03:10:43.698Z,93.79
2022-10-03T03:11:43.684Z,93.79
2022-10-03T03:12:43.678Z,93.48
2022-10-03T03:13:43.669Z,93.16
2022-10-03T03:14:43.647Z,93.31
2022-10-03T03:15:43.628Z,93.73
2022-10-03T03:16:43.763Z,93.93
2022-10-03T03:17:43.600Z,94.03
2022-10-03T03:18:43.609Z,93.93
2022-10-03T03:19:43.579Z,94.03
2022-10-03T03:20:43.572Z,94.03
2022-10-03T03:21:43.578Z,94.03
2022-10-03T03:22:43.549Z,94.03
2022-10-03T03:23:43.540Z,94.13
2022-10-03T03:24:43.508Z,94.03
2022-10-03T03:25:43.501Z,94.03
2022-10-03T03:26:43.488Z,94.03
2022-10-03T03:27:43.498Z,93.93
2022-10-03T03:28:43.466Z,93.68
2022-10-03T03:29:43.479Z,93.52
2022-10-03T03:30:43.447Z,93.41
2022-10-03T03:31:43.971Z,93.31
2022-10-03T03:32:43.415Z,93.41
2022-10-03T03:33:43.408Z,93.21
2022-10-03T03:34:43.378Z,93.21
2022-10-03T03:35:43.367Z,93.11
2022-10-03T03:36:43.348Z,93.11
2022-10-03T03:37:43.339Z,93.25
2022-10-03T03:38:43.357Z,93.46
2022-10-03T03:39:43.317Z,93.77
2022-10-03T03:40:43.308Z,93.98
2022-10-03T03:41:43.288Z,93.98
2022-10-03T03:42:43.303Z,94.08
2022-10-03T03:43:43.277Z,94.12
2022-10-03T03:44:43.258Z,94.32
2022-10-03T03:45:43.277Z,94.53
2022-10-03T03:46:43.229Z,94.53
2022-10-03T03:47:43.224Z,94.64
2022-10-03T03:48:43.227Z,94.84
2022-10-03T03:49:43.187Z,94.95
2022-10-03T03:50:43.189Z,95.15
2022-10-03T03:51:43.169Z,95.15
2022-10-03T03:52:43.157Z,95.15
2022-10-03T03:53:43.157Z,95.31
2022-10-03T03:54:43.157Z,95.42
2022-10-03T03:55:43.108Z,95.31
2022-10-03T03:56:43.106Z,95.31
2022-10-03T03:57:43.087Z,95.31
2022-10-03T03:58:43.099Z,95.21
2022-10-03T03:59:43.065Z,95.21
2022-10-03T04:00:43.097Z,95.42
2022-10-03T04:01:43.461Z,95.42
2022-10-03T04:02:43.018Z,95.42
2022-10-03T04:03:43.027Z,95.42
2022-10-03T04:04:42.998Z,95.21
2022-10-03T04:05:42.981Z,95.00
2022-10-03T04:06:42.976Z,94.80
2022-10-03T04:07:42.963Z,94.59
2022-10-03T04:08:42.977Z,94.49
2022-10-03T04:09:42.929Z,94.38
2022-10-03T04:10:42.918Z,94.70
2022-10-03T04:11:43.169Z,94.90
2022-10-03T04:12:42.888Z,94.80
2022-10-03T04:13:42.908Z,94.90
2022-10-03T04:14:42.867Z,95.10
2022-10-03T04:15:42.849Z,95.31
2022-10-03T04:16:42.907Z,95.42
2022-10-03T04:17:42.827Z,95.37
2022-10-03T04:18:42.828Z,95.37
2022-10-03T04:19:42.788Z,95.48
2022-10-03T04:20:42.795Z,95.27
2022-10-03T04:21:42.980Z,94.96
2022-10-03T04:22:42.788Z,94.65
2022-10-03T04:23:42.755Z,94.55
2022-10-03T04:24:42.747Z,94.45
2022-10-03T04:25:42.727Z,94.34
2022-10-03T04:26:42.716Z,94.55
2022-10-03T04:27:42.743Z,94.76
2022-10-03T04:28:42.697Z,94.96
2022-10-03T04:29:42.690Z,94.85
2022-10-03T04:30:42.665Z,94.65
2022-10-03T04:31:43.229Z,94.55
2022-10-03T04:32:42.639Z,94.76
2022-10-03T04:33:42.636Z,94.85
2022-10-03T04:34:42.599Z,94.96
2022-10-03T04:35:42.587Z,95.17
2022-10-03T04:36:42.587Z,95.37
2022-10-03T04:37:42.557Z,95.37
2022-10-03T04:38:42.557Z,95.37
2022-10-03T04:39:42.577Z,95.58
2022-10-03T04:40:42.529Z,95.68
2022-10-03T04:41:43.350Z,95.58
2022-10-03T04:42:42.497Z,95.48
2022-10-03T04:43:42.507Z,95.53
2022-10-03T04:44:42.477Z,95.74
2022-10-03T04:45:42.484Z,95.84
2022-10-03T04:46:42.448Z,95.95
2022-10-03T04:47:42.436Z,96.05
2022-10-03T04:48:42.556Z,96.15
2022-10-03T04:49:42.408Z,96.36
2022-10-03T04:50:42.398Z,96.67
2022-10-03T04:51:42.396Z,96.77
2022-10-03T04:52:42.391Z,96.83
2022-10-03T04:53:42.367Z,96.83
2022-10-03T04:54:42.347Z,96.72
2022-10-03T04:55:42.339Z,96.62
2022-10-03T04:56:42.328Z,96.52
2022-10-03T04:57:42.347Z,96.52
2022-10-03T04:58:42.298Z,96.52
2022-10-03T04:59:42.268Z,96.52
2022-10-03T05:00:42.314Z,96.52
2022-10-03T05:01:42.455Z,96.52
2022-10-03T05:02:42.263Z,96.52
2022-10-03T05:03:42.237Z,96.47
2022-10-03T05:04:42.217Z,96.47
2022-10-03T05:05:42.216Z,96.47
2022-10-03T05:06:42.195Z,96.37
2022-10-03T05:07:42.198Z,96.27
2022-10-03T05:08:42.167Z,96.17
2022-10-03T05:09:42.148Z,96.06
2022-10-03T05:10:42.140Z,95.96
2022-10-03T05:11:42.349Z,95.86
2022-10-03T05:12:42.129Z,95.65
2022-10-03T05:13:42.107Z,95.55
2022-10-03T05:14:42.116Z,95.45
2022-10-03T05:15:42.087Z,95.34
2022-10-03T05:16:42.139Z,95.24
2022-10-03T05:17:42.079Z,95.24
2022-10-03T05:18:42.039Z,95.14
2022-10-03T05:19:42.044Z,95.14
2022-10-03T05:20:42.018Z,95.14
2022-10-03T05:21:42.388Z,95.24
2022-10-03T05:22:41.998Z,95.34
2022-10-03T05:23:41.967Z,95.45
2022-10-03T05:24:41.971Z,95.45
2022-10-03T05:25:41.946Z,95.55
2022-10-03T05:26:46.085Z,95.65
2022-10-03T05:27:41.956Z,95.65
2022-10-03T05:28:41.907Z,95.75
2022-10-03T05:29:41.888Z,95.75
2022-10-03T05:30:41.876Z,95.86
2022-10-03T05:31:42.270Z,95.96
2022-10-03T05:32:41.908Z,96.06
2022-10-03T05:33:41.841Z,96.17
2022-10-03T05:34:41.813Z,96.37
2022-10-03T05:35:41.807Z,96.47
2022-10-03T05:36:41.806Z,96.58
2022-10-03T05:37:41.795Z,96.58
2022-10-03T05:38:41.778Z,96.58
2022-10-03T05:39:41.758Z,96.68
2022-10-03T05:40:41.750Z,96.68
2022-10-03T05:41:42.208Z,96.73
2022-10-03T05:42:41.738Z,96.73
2022-10-03T05:43:41.708Z,96.84
2022-10-03T05:44:41.712Z,96.84
2022-10-03T05:45:41.792Z,96.94
2022-10-03T05:46:41.687Z,96.94
2022-10-03T05:47:41.684Z,97.05
2022-10-03T05:48:41.649Z,97.05
2022-10-03T05:49:41.647Z,97.15
2022-10-03T05:50:41.631Z,97.15
2022-10-03T05:51:42.134Z,97.15
2022-10-03T05:52:41.597Z,97.05
2022-10-03T05:53:41.597Z,96.94
2022-10-03T05:54:41.567Z,96.84
2022-10-03T05:55:41.558Z,96.84
2022-10-03T05:56:41.547Z,96.84
2022-10-03T05:57:41.559Z,96.84
2022-10-03T05:58:41.538Z,96.84
2022-10-03T05:59:41.508Z,96.84
2022-10-03T06:00:41.505Z,96.94
2022-10-03T06:01:41.800Z,96.94
2022-10-03T06:02:41.615Z,96.94
2022-10-03T06:03:41.458Z,97.05
2022-10-03T06:04:41.494Z,97.05
2022-10-03T06:05:41.428Z,97.05
2022-10-03T06:06:41.418Z,97.10
2022-10-03T06:07:41.421Z,97.10
2022-10-03T06:08:41.397Z,97.10
2022-10-03T06:09:41.379Z,97.10
2022-10-03T06:10:41.357Z,97.20
2022-10-03T06:11:41.883Z,97.31
2022-10-03T06:12:41.388Z,97.31
2022-10-03T06:13:41.348Z,97.31
2022-10-03T06:14:41.326Z,97.41
2022-10-03T06:15:41.347Z,97.52
2022-10-03T06:16:41.328Z,97.62
2022-10-03T06:17:43.301Z,97.62
2022-10-03T06:18:41.258Z,97.78
2022-10-03T06:19:41.298Z,97.88
2022-10-03T06:20:41.249Z,98.08
2022-10-03T06:21:41.651Z,98.08
2022-10-03T06:22:41.228Z,98.19
2022-10-03T06:23:41.198Z,98.19
2022-10-03T06:24:41.179Z,98.04
2022-10-03T06:25:41.178Z,98.04
2022-10-03T06:26:41.210Z,97.94
2022-10-03T06:27:41.166Z,97.94
2022-10-03T06:28:41.161Z,97.94
2022-10-03T06:29:41.117Z,97.94
2022-10-03T06:30:41.134Z,97.79
2022-10-03T06:31:41.363Z,97.79
2022-10-03T06:32:41.084Z,97.79
2022-10-03T06:33:48.202Z,97.79
2022-10-03T06:34:41.051Z,97.79
2022-10-03T06:35:41.041Z,97.69
2022-10-03T06:36:41.024Z,97.69
2022-10-03T06:37:41.042Z,97.58
2022-10-03T06:38:41.002Z,97.54
2022-10-03T06:39:40.991Z,97.54
2022-10-03T06:40:40.966Z,97.44
2022-10-03T06:41:41.472Z,97.44
2022-10-03T06:42:40.973Z,97.44
2022-10-03T06:43:40.940Z,97.54
2022-10-03T06:44:40.913Z,97.54
2022-10-03T06:45:40.912Z,97.44
2022-10-03T06:46:40.899Z,97.39
2022-10-03T06:47:40.902Z,97.29
2022-10-03T06:48:40.875Z,97.19
2022-10-03T06:49:40.862Z,97.19
2022-10-03T06:50:40.842Z,97.08
2022-10-03T06:51:41.247Z,97.08
2022-10-03T06:52:40.841Z,96.98
2022-10-03T06:53:40.804Z,96.98
2022-10-03T06:54:40.791Z,96.98
2022-10-03T06:55:40.783Z,96.98
2022-10-03T06:56:40.760Z,96.98
2022-10-03T06:57:40.761Z,96.98
2022-10-03T06:58:40.734Z,96.98
2022-10-03T06:59:40.731Z,96.98
2022-10-03T07:00:40.710Z,96.98
2022-10-03T07:01:41.024Z,96.98
2022-10-03T07:02:40.738Z,96.83
2022-10-03T07:03:40.671Z,96.88
2022-10-03T07:04:40.664Z,96.83
2022-10-03T07:05:41.234Z,96.94
2022-10-03T07:06:40.625Z,97.14
2022-10-03T07:07:40.641Z,97.24
2022-10-03T07:08:40.592Z,97.45
2022-10-03T07:09:40.602Z,97.55
2022-10-03T07:10:40.574Z,97.65
2022-10-03T07:11:40.951Z,97.75
2022-10-03T07:12:40.540Z,97.86
2022-10-03T07:13:40.551Z,97.91
2022-10-03T07:14:40.510Z,97.91
2022-10-03T07:16:05.100Z,97.91
2022-10-03T07:16:41.520Z,97.81
2022-10-03T07:17:40.471Z,97.81
2022-10-03T07:18:40.470Z,97.71
2022-10-03T07:19:40.447Z,97.61
2022-10-03T07:20:40.419Z,97.46
2022-10-03T07:21:40.885Z,97.25
2022-10-03T07:22:40.420Z,97.15
2022-10-03T07:23:40.401Z,97.15
2022-10-03T07:24:40.384Z,97.05
2022-10-03T07:25:40.383Z,97.05
2022-10-03T07:26:40.353Z,97.15
2022-10-03T07:27:40.370Z,97.00
2022-10-03T07:28:40.394Z,97.00
2022-10-03T07:29:40.386Z,97.00
2022-10-03T07:30:40.312Z,96.91
2022-10-03T07:31:40.632Z,96.91
2022-10-03T07:32:40.300Z,96.80
2022-10-03T07:33:40.272Z,96.70
2022-10-03T07:34:40.251Z,96.70
2022-10-03T07:35:40.270Z,96.70
2022-10-03T07:36:40.233Z,96.70
2022-10-03T07:37:40.233Z,96.86
2022-10-03T07:38:40.227Z,96.86
2022-10-03T07:39:40.192Z,96.86
2022-10-03T07:40:40.164Z,96.86
2022-10-03T07:41:40.587Z,96.86
2022-10-03T07:42:44.745Z,96.86
2022-10-03T07:43:41.144Z,96.75
2022-10-03T07:44:40.122Z,96.75
2022-10-03T07:45:40.103Z,96.66
2022-10-03T07:46:40.125Z,96.55
2022-10-03T07:47:40.091Z,96.45
2022-10-03T07:48:40.066Z,96.41
2022-10-03T07:49:40.052Z,96.41
2022-10-03T07:50:40.034Z,96.51
2022-10-03T07:51:40.241Z,96.61
2022-10-03T07:52:40.059Z,96.61
2022-10-03T07:53:40.004Z,96.61
2022-10-03T07:54:39.970Z,96.71
2022-10-03T07:55:39.976Z,96.71
2022-10-03T07:56:39.954Z,96.71
2022-10-03T07:57:40.036Z,98.30
2022-10-03T07:58:39.925Z,98.46
2022-10-03T07:59:39.922Z,98.46
2022-10-03T08:00:40.786Z,97.74
2022-10-03T08:01:40.202Z,98.11
2022-10-03T08:02:39.926Z,98.11
2022-10-03T08:03:39.933Z,97.75
2022-10-03T08:04:39.841Z,96.79
2022-10-03T08:05:39.842Z,95.67
2022-10-03T08:06:39.821Z,94.85
2022-10-03T08:07:39.835Z,94.60
2022-10-03T08:08:39.794Z,94.30
2022-10-03T08:09:39.784Z,93.28
2022-10-03T08:10:40.827Z,93.13
2022-10-03T08:11:40.098Z,90.79
2022-10-03T08:12:39.986Z,90.53
2022-10-03T08:13:39.826Z,90.12
2022-10-03T08:14:39.712Z,90.63
2022-10-03T08:15:39.726Z,91.18
2022-10-03T08:16:39.692Z,91.39
2022-10-03T08:17:39.704Z,91.59
2022-10-03T08:18:39.694Z,91.89
2022-10-03T08:19:39.654Z,92.20
2022-10-03T08:20:39.633Z,92.30
2022-10-03T08:21:39.889Z,92.45
2022-10-03T08:22:39.625Z,92.55
2022-10-03T08:23:39.594Z,92.65
2022-10-03T08:24:39.584Z,92.96
2022-10-03T08:25:39.574Z,93.16
2022-10-03T08:26:39.551Z,93.47
2022-10-03T08:27:39.565Z,93.57
2022-10-03T08:28:39.525Z,93.57
2022-10-03T08:29:39.522Z,93.57
2022-10-03T08:30:39.498Z,93.67
2022-10-03T08:31:39.865Z,93.98
2022-10-03T08:32:39.487Z,94.08
2022-10-03T08:33:39.555Z,93.88
2022-10-03T08:34:39.476Z,93.82
2022-10-03T08:35:39.574Z,93.92
2022-10-03T08:36:39.444Z,94.02
2022-10-03T08:37:39.419Z,93.51
2022-10-03T08:38:39.477Z,93.62
2022-10-03T08:39:39.408Z,93.62
2022-10-03T08:40:39.386Z,93.82
2022-10-03T08:41:39.542Z,93.92
2022-10-03T08:42:39.347Z,93.88
2022-10-03T08:43:39.356Z,93.71
2022-10-03T08:44:39.325Z,93.41
2022-10-03T08:45:39.324Z,93.41
2022-10-03T08:46:39.682Z,93.47
2022-10-03T08:47:39.337Z,93.77
2022-10-03T08:48:39.287Z,94.08
2022-10-03T08:49:39.269Z,94.29
2022-10-03T08:50:39.226Z,93.98
2022-10-03T08:51:39.466Z,93.77
2022-10-03T08:52:39.208Z,93.88
2022-10-03T08:53:39.239Z,93.77
2022-10-03T08:54:39.186Z,93.57
2022-10-03T08:55:39.167Z,93.26
2022-10-03T08:56:39.199Z,93.12
2022-10-03T08:57:39.137Z,93.12
2022-10-03T08:58:39.155Z,93.02
2022-10-03T08:59:39.115Z,92.50
2022-10-03T09:00:39.107Z,92.30
2022-10-03T09:01:39.414Z,92.20
2022-10-03T09:02:39.132Z,92.20
2022-10-03T09:03:42.866Z,92.50
2022-10-03T09:04:39.057Z,92.71
2022-10-03T09:05:39.041Z,92.97
2022-10-03T09:06:52.739Z,92.57
2022-10-03T09:07:40.024Z,92.26
2022-10-03T09:08:39.025Z,91.75
2022-10-03T09:09:38.987Z,91.96
2022-10-03T09:10:38.986Z,92.16
2022-10-03T09:11:38.966Z,91.85
2022-10-03T09:12:38.963Z,91.44
2022-10-03T09:13:38.967Z,91.24
2022-10-03T09:14:38.924Z,91.03
2022-10-03T09:15:38.991Z,91.24
2022-10-03T09:16:39.213Z,92.57
2022-10-03T09:17:38.877Z,92.05
2022-10-03T09:18:38.898Z,91.75
2022-10-03T09:19:38.857Z,91.61
2022-10-03T09:20:38.849Z,91.40
2022-10-03T09:21:38.827Z,90.08
2022-10-03T09:22:38.818Z,89.67
2022-10-03T09:23:38.816Z,89.77
2022-10-03T09:24:38.783Z,89.97
2022-10-03T09:25:38.756Z,89.87
2022-10-03T09:26:39.004Z,89.87
2022-10-03T09:27:38.748Z,89.97
2022-10-03T09:28:38.810Z,90.18
2022-10-03T09:29:38.718Z,90.28
2022-10-03T09:30:38.708Z,90.34
2022-10-03T09:31:39.185Z,90.44
2022-10-03T09:32:38.699Z,90.24
2022-10-03T09:33:38.669Z,89.73
2022-10-03T09:34:38.678Z,88.81
2022-10-03T09:35:38.651Z,88.81
2022-10-03T09:36:38.648Z,88.92
2022-10-03T09:37:38.617Z,89.32
2022-10-03T09:38:38.730Z,89.63
2022-10-03T09:39:38.588Z,89.73
2022-10-03T09:40:38.596Z,89.83
2022-10-03T09:41:38.867Z,89.94
2022-10-03T09:42:38.560Z,89.79
2022-10-03T09:43:38.562Z,89.48
2022-10-03T09:44:38.520Z,89.28
2022-10-03T09:45:38.509Z,88.87
2022-10-03T09:46:40.891Z,88.16
2022-10-03T09:47:38.493Z,87.85
2022-10-03T09:48:38.567Z,87.75
2022-10-03T09:49:38.458Z,87.85
2022-10-03T09:50:38.528Z,88.16
2022-10-03T09:51:38.822Z,87.96
2022-10-03T09:52:38.441Z,87.85
2022-10-03T09:53:38.461Z,87.24
2022-10-03T09:54:38.388Z,87.04
2022-10-03T09:55:38.378Z,87.14
2022-10-03T09:56:38.690Z,87.55
2022-10-03T09:57:38.360Z,88.57
2022-10-03T09:58:38.401Z,88.98
2022-10-03T09:59:38.389Z,88.92
2022-10-03T10:00:38.336Z,89.01
2022-10-03T10:01:38.543Z,89.32
2022-10-03T10:02:38.290Z,89.73
2022-10-03T10:03:38.377Z,90.03
2022-10-03T10:04:54.153Z,90.34
2022-10-03T10:05:39.247Z,90.55
2022-10-03T10:06:38.539Z,90.03
2022-10-03T10:07:38.229Z,90.03
2022-10-03T10:08:38.210Z,90.14
2022-10-03T10:09:38.208Z,90.24
2022-10-03T10:10:38.201Z,90.14
2022-10-03T10:11:38.167Z,89.73
2022-10-03T10:12:38.160Z,88.71
2022-10-03T10:14:03.289Z,88.92
2022-10-03T10:14:39.172Z,89.12
2022-10-03T10:15:38.141Z,89.53
2022-10-03T10:16:38.733Z,89.63
2022-10-03T10:17:38.070Z,89.12
2022-10-03T10:18:38.080Z,88.31
2022-10-03T10:19:38.078Z,88.61
2022-10-03T10:20:38.074Z,89.22
2022-10-03T10:21:38.048Z,89.53
2022-10-03T10:22:38.031Z,89.42
2022-10-03T10:23:38.015Z,89.22
2022-10-03T10:24:38.020Z,89.12
2022-10-03T10:25:37.982Z,89.32
2022-10-03T10:26:37.982Z,89.63
2022-10-03T10:27:37.950Z,90.03
2022-10-03T10:28:38.163Z,90.03
2022-10-03T10:29:37.948Z,89.63
2022-10-03T10:30:37.921Z,89.32
2022-10-03T10:31:37.935Z,89.22
2022-10-03T10:32:37.893Z,89.28
2022-10-03T10:33:37.879Z,89.38
2022-10-03T10:34:37.881Z,89.18
2022-10-03T10:35:37.850Z,89.18
2022-10-03T10:36:38.237Z,89.28
2022-10-03T10:37:40.640Z,89.38
2022-10-03T10:38:37.883Z,89.03
2022-10-03T10:39:37.819Z,88.53
2022-10-03T10:40:37.982Z,88.22
2022-10-03T10:41:41.914Z,88.02
2022-10-03T10:42:38.290Z,88.02
2022-10-03T10:43:37.751Z,88.22
2022-10-03T10:44:37.771Z,88.42
2022-10-03T10:45:37.723Z,88.22
2022-10-03T10:46:38.211Z,87.45
2022-10-03T10:47:37.692Z,86.83
2022-10-03T10:48:37.694Z,86.53
2022-10-03T10:49:37.681Z,86.33
2022-10-03T10:50:37.665Z,86.22
2022-10-03T10:51:37.640Z,86.22
2022-10-03T10:52:37.643Z,86.43
2022-10-03T10:53:37.622Z,86.63
2022-10-03T10:54:37.695Z,86.83
2022-10-03T10:55:37.593Z,86.53
2022-10-03T10:56:37.964Z,86.43
2022-10-03T10:57:37.543Z,86.83
2022-10-03T10:58:37.614Z,87.35
2022-10-03T10:59:37.562Z,87.55
2022-10-03T11:00:37.583Z,87.75
2022-10-03T11:01:37.512Z,88.06
2022-10-03T11:02:37.503Z,88.16
2022-10-03T11:03:37.576Z,88.36
2022-10-03T11:04:37.517Z,88.77
2022-10-03T11:05:37.462Z,88.87
2022-10-03T11:06:37.715Z,88.87
2022-10-03T11:07:37.434Z,88.87
2022-10-03T11:08:37.423Z,88.87
2022-10-03T11:09:37.414Z,88.77
2022-10-03T11:10:37.395Z,88.63
2022-10-03T11:11:37.383Z,88.22
2022-10-03T11:12:37.385Z,87.81
2022-10-03T11:13:37.355Z,87.41
2022-10-03T11:14:37.365Z,87.41
2022-10-03T11:15:37.333Z,87.61
2022-10-03T11:16:37.671Z,87.71
2022-10-03T11:17:37.295Z,86.49
2022-10-03T11:18:37.305Z,86.59
2022-10-03T11:19:37.292Z,86.19
2022-10-03T11:20:37.265Z,86.90
2022-10-03T11:21:37.235Z,87.30
2022-10-03T11:22:37.235Z,86.96
2022-10-03T11:23:37.224Z,86.65
2022-10-03T11:24:37.219Z,86.55
2022-10-03T11:25:37.214Z,86.04
2022-10-03T11:26:37.434Z,85.94
2022-10-03T11:27:37.173Z,86.15
2022-10-03T11:28:37.279Z,85.64
2022-10-03T11:29:37.137Z,85.23
2022-10-03T11:30:37.147Z,85.53
2022-10-03T11:31:37.193Z,85.53
2022-10-03T11:32:37.105Z,85.13
2022-10-03T11:33:37.084Z,84.92
2022-10-03T11:34:37.076Z,85.03
2022-10-03T11:35:42.153Z,84.62
2022-10-03T11:36:38.456Z,84.52
2022-10-03T11:37:37.037Z,84.62
2022-10-03T11:38:37.054Z,84.31
2022-10-03T11:39:37.013Z,84.11
2022-10-03T11:40:37.019Z,84.21
2022-10-03T11:41:36.985Z,84.52
2022-10-03T11:42:36.967Z,84.92
2022-10-03T11:43:37.003Z,84.68
2022-10-03T11:44:36.945Z,84.38
2022-10-03T11:45:36.978Z,83.56
2022-10-03T11:46:37.094Z,83.36
2022-10-03T11:47:36.899Z,84.38
2022-10-03T11:48:36.933Z,84.74
2022-10-03T11:49:36.906Z,84.74
2022-10-03T11:50:36.866Z,82.20
2022-10-03T11:51:36.847Z,81.70
2022-10-03T11:52:36.846Z,82.71
2022-10-03T11:53:36.826Z,80.68
2022-10-03T11:54:36.853Z,78.85
2022-10-03T11:55:36.829Z,79.05
2022-10-03T11:56:36.971Z,79.25
2022-10-03T11:57:36.797Z,78.14
2022-10-03T11:58:36.762Z,78.24
2022-10-03T11:59:36.740Z,78.55
2022-10-03T12:00:36.778Z,79.25
2022-10-03T12:01:36.870Z,80.37
2022-10-03T12:02:36.880Z,81.39
2022-10-03T12:03:36.751Z,81.59
2022-10-03T12:04:36.687Z,81.59
2022-10-03T12:05:36.668Z,80.68
2022-10-03T12:06:36.972Z,80.58
2022-10-03T12:07:36.635Z,80.37
2022-10-03T12:08:36.627Z,80.47
2022-10-03T12:09:36.607Z,81.39
2022-10-03T12:10:36.630Z,82.51
2022-10-03T12:11:36.602Z,81.90
2022-10-03T12:12:36.602Z,80.98
2022-10-03T12:13:36.616Z,80.37
2022-10-03T12:14:36.639Z,79.52
2022-10-03T12:15:36.547Z,78.81
2022-10-03T12:16:36.792Z,78.41
2022-10-03T12:17:36.509Z,79.72
2022-10-03T12:18:36.500Z,80.24
2022-10-03T12:19:36.480Z,80.60
2022-10-03T12:20:36.490Z,80.60
2022-10-03T12:21:36.449Z,79.55
2022-10-03T12:22:36.438Z,79.14
2022-10-03T12:23:36.419Z,79.96
2022-10-03T12:24:36.418Z,78.44
2022-10-03T12:25:36.414Z,77.12
2022-10-03T12:26:36.389Z,76.51
2022-10-03T12:27:36.381Z,76.61
2022-10-03T12:28:36.433Z,77.36
2022-10-03T12:29:36.347Z,77.15
2022-10-03T12:30:36.349Z,77.15
2022-10-03T12:31:36.410Z,76.95
2022-10-03T12:32:36.309Z,76.24
2022-10-03T12:33:36.304Z,76.03
2022-10-03T12:34:36.287Z,76.34
2022-10-03T12:35:43.449Z,77.66
2022-10-03T12:36:36.280Z,76.48
2022-10-03T12:37:36.239Z,75.46
2022-10-03T12:38:36.249Z,75.26
2022-10-03T12:39:36.209Z,75.76
2022-10-03T12:40:36.270Z,76.78
2022-10-03T12:41:36.566Z,77.59
2022-10-03T12:42:36.169Z,78.30
2022-10-03T12:43:36.209Z,78.00
2022-10-03T12:44:36.147Z,77.02
2022-10-03T12:45:36.169Z,75.40
2022-10-03T12:46:36.131Z,75.70
2022-10-03T12:47:54.915Z,74.38
2022-10-03T12:48:37.101Z,73.97
2022-10-03T12:49:36.061Z,73.67
2022-10-03T12:50:36.083Z,73.94
2022-10-03T12:51:36.110Z,74.34
2022-10-03T12:52:36.040Z,72.92